Time;durP1;ratioP1;P1;durP2;ratioP2;P2;SDS_P1;SDS_P2;PMS_P1;PMS_P2;Temp;Humidity;BMP_temperature;BMP_pressure;BME280_temperature;BME280_humidity;BME280_pressure;Samples;Min_cycle;Max_cycle;Signal;HPM_P1;HPM_P2
2023/11/22 00:01:22;;;;;;;17.50;10.00;;;;;;;10.14;59.26;100393.92;108206;1283;21992;-59
2023/11/22 00:03:47;;;;;;;15.70;9.50;;;;;;;10.15;59.33;100399.35;108284;1283;21985;-59
2023/11/22 00:06:13;;;;;;;16.00;9.60;;;;;;;10.16;59.39;100400.36;108229;1274;22076;-58
2023/11/22 00:08:39;;;;;;;19.70;9.80;;;;;;;10.18;59.32;100402.12;108272;1284;21991;-59
2023/11/22 00:11:05;;;;;;;15.90;9.10;;;;;;;10.20;59.37;100400.70;108198;1280;21982;-59
2023/11/22 00:13:32;;;;;;;19.90;11.10;;;;;;;10.20;59.43;100398.39;108187;1280;22001;-59
2023/11/22 00:15:57;;;;;;;17.80;9.80;;;;;;;10.21;59.29;100397.35;108234;1280;21980;-59
2023/11/22 00:18:24;;;;;;;20.80;10.00;;;;;;;10.20;59.26;100397.88;108211;1271;22041;-60
2023/11/22 00:20:50;;;;;;;19.20;10.30;;;;;;;10.21;59.37;100393.30;108234;1280;22021;-59
2023/11/22 00:23:15;;;;;;;21.30;12.00;;;;;;;10.21;59.21;100391.39;108283;1284;22008;-59
2023/11/22 00:25:41;;;;;;;17.30;9.50;;;;;;;10.20;59.31;100388.42;108247;1280;21988;-59
2023/11/22 00:28:07;;;;;;;20.20;9.90;;;;;;;10.20;59.44;100383.84;108357;1277;21985;-59
2023/11/22 00:30:32;;;;;;;20.60;10.80;;;;;;;10.20;59.36;100379.81;108201;1275;21992;-59
2023/11/22 00:32:58;;;;;;;20.30;10.30;;;;;;;10.21;59.39;100375.95;108195;1280;21956;-60
2023/11/22 00:35:24;;;;;;;19.70;9.80;;;;;;;10.22;59.48;100374.02;108190;1278;21993;-60
2023/11/22 00:37:49;;;;;;;21.20;10.80;;;;;;;10.23;59.47;100371.20;108159;1276;21983;-59
2023/11/22 00:40:15;;;;;;;24.20;11.60;;;;;;;10.23;59.63;100366.64;108185;1280;21987;-59
2023/11/22 00:42:42;;;;;;;22.40;10.90;;;;;;;10.23;59.64;100361.38;108199;1277;21989;-59
2023/11/22 00:45:09;;;;;;;20.10;10.10;;;;;;;10.25;59.71;100359.44;108202;1272;21986;-59
2023/11/22 00:47:36;;;;;;;22.10;11.10;;;;;;;10.25;59.65;100355.38;108243;1284;22008;-59
2023/11/22 00:50:04;;;;;;;20.20;10.40;;;;;;;10.26;59.74;100358.52;108237;1281;21993;-59
2023/11/22 00:52:30;;;;;;;18.50;11.00;;;;;;;10.27;59.82;100362.92;108222;1284;22002;-59
2023/11/22 00:54:56;;;;;;;24.10;12.00;;;;;;;10.29;59.81;100363.95;108206;1280;21986;-60
2023/11/22 00:57:21;;;;;;;24.80;11.80;;;;;;;10.29;59.81;100367.45;108240;1279;23780;-59
2023/11/22 00:59:47;;;;;;;22.80;11.40;;;;;;;10.30;59.65;100369.02;107437;1279;1002616;-60
2023/11/22 01:02:13;;;;;;;23.20;12.30;;;;;;;10.29;59.67;100368.16;108167;1273;21992;-59
2023/11/22 01:04:40;;;;;;;21.20;11.60;;;;;;;10.30;59.60;100372.70;108241;1277;21988;-59
2023/11/22 01:07:06;;;;;;;26.50;12.30;;;;;;;10.29;59.60;100375.69;108181;1284;21991;-60
2023/11/22 01:09:33;;;;;;;25.50;11.80;;;;;;;10.29;59.69;100377.98;108193;1278;21984;-59
2023/11/22 01:11:59;;;;;;;23.20;12.10;;;;;;;10.28;59.65;100377.10;108253;1284;21989;-59
2023/11/22 01:14:26;;;;;;;23.80;11.40;;;;;;;10.29;59.73;100372.88;108240;1280;22001;-59
2023/11/22 01:16:52;;;;;;;28.10;12.70;;;;;;;10.30;59.75;100372.70;108285;1277;22450;-59
2023/11/22 01:19:18;;;;;;;21.10;11.70;;;;;;;10.32;59.81;100371.29;105983;1284;1003210;-59
2023/11/22 01:21:43;;;;;;;22.40;11.40;;;;;;;10.33;59.94;100368.64;108206;1280;21998;-59
2023/11/22 01:24:09;;;;;;;21.60;11.60;;;;;;;10.34;59.96;100367.05;108200;1284;21985;-59
2023/11/22 01:26:35;;;;;;;24.10;11.70;;;;;;;10.36;59.90;100369.66;108207;1284;21985;-59
2023/11/22 01:29:02;;;;;;;27.60;12.90;;;;;;;10.37;60.05;100369.30;108211;1284;22021;-61
2023/11/22 01:31:28;;;;;;;24.20;12.30;;;;;;;10.38;60.02;100373.83;108233;1284;21984;-60
2023/11/22 01:33:54;;;;;;;26.70;12.50;;;;;;;10.40;59.98;100375.95;108283;1284;21982;-59
2023/11/22 01:36:20;;;;;;;25.90;13.00;;;;;;;10.41;59.89;100375.77;108284;1284;21989;-59
2023/11/22 01:38:46;;;;;;;28.00;13.60;;;;;;;10.40;60.06;100378.05;108242;1285;21987;-59
2023/11/22 01:41:13;;;;;;;27.00;13.60;;;;;;;10.40;60.25;100377.70;108061;1285;21984;-59
2023/11/22 01:43:42;;;;;;;23.70;12.80;;;;;;;10.39;60.27;100372.77;108082;1280;21990;-59
2023/11/22 01:46:08;;;;;;;24.00;12.30;;;;;;;10.39;60.24;100370.70;108193;1285;22012;-60
2023/11/22 01:48:35;;;;;;;23.60;11.20;;;;;;;10.40;60.14;100365.95;108319;1285;21998;-58
2023/11/22 01:51:00;;;;;;;24.00;12.40;;;;;;;10.41;60.15;100358.56;108334;1279;21986;-59
2023/11/22 01:53:26;;;;;;;26.60;11.80;;;;;;;10.43;60.18;100352.94;108191;1285;22004;-59
2023/11/22 01:55:52;;;;;;;24.10;12.40;;;;;;;10.44;60.21;100352.06;108178;1276;22007;-59
2023/11/22 01:58:17;;;;;;;22.90;11.90;;;;;;;10.44;60.23;100345.04;108010;1283;21986;-59
2023/11/22 02:00:49;;;;;;;22.20;12.00;;;;;;;10.44;60.26;100342.40;108129;1285;21996;-59
2023/11/22 02:03:15;;;;;;;21.80;11.20;;;;;;;10.44;60.29;100343.63;108104;1280;21996;-60
2023/11/22 02:05:45;;;;;;;23.30;11.40;;;;;;;10.44;60.38;100339.25;108014;1285;22006;-60
2023/11/22 02:08:11;;;;;;;23.50;12.40;;;;;;;10.44;60.21;100338.89;108037;1285;22024;-60
2023/11/22 02:10:37;;;;;;;26.10;12.30;;;;;;;10.43;60.24;100340.13;108002;1280;21982;-59
2023/11/22 02:13:07;;;;;;;26.50;14.30;;;;;;;10.43;60.23;100336.09;108002;1277;21999;-60
2023/11/22 02:15:39;;;;;;;;;;;;;;;10.42;60.13;100337.86;108139;1285;22030;-60
2023/11/22 02:18:06;;;;;;;26.60;13.20;;;;;;;10.39;60.13;100335.27;108009;1274;21987;-59
2023/11/22 02:20:32;;;;;;;27.40;13.80;;;;;;;10.37;60.25;100333.00;108039;1280;22024;-60
2023/11/22 02:23:03;;;;;;;25.90;12.60;;;;;;;10.36;60.20;100328.79;108180;1285;21987;-59
2023/11/22 02:25:29;;;;;;;25.70;12.60;;;;;;;10.36;60.23;100324.05;108059;1277;21987;-59
2023/11/22 02:27:54;;;;;;;22.70;12.20;;;;;;;10.35;60.41;100319.67;107973;1280;21999;-59
2023/11/22 02:30:21;;;;;;;29.60;13.40;;;;;;;10.36;60.39;100324.42;108036;1280;21989;-59
2023/11/22 02:32:47;;;;;;;29.40;12.50;;;;;;;10.36;60.30;100325.28;108072;1285;21985;-60
2023/11/22 02:35:13;;;;;;;29.10;13.20;;;;;;;10.36;60.40;100325.45;108077;1285;22044;-60
2023/11/22 02:37:39;;;;;;;21.30;11.70;;;;;;;10.36;60.33;100323.54;108117;1285;21983;-59
2023/11/22 02:40:20;;;;;;;25.40;11.80;;;;;;;10.36;60.39;100323.70;108023;1280;21996;-59
2023/11/22 02:42:49;;;;;;;24.10;13.30;;;;;;;10.36;60.45;100319.86;108235;1280;21996;-60
2023/11/22 02:45:19;;;;;;;27.60;13.20;;;;;;;10.36;60.32;100317.04;108121;1279;21991;-60
2023/11/22 02:47:46;;;;;;;30.10;13.40;;;;;;;10.35;60.40;100318.64;108004;1280;22042;-60
2023/11/22 02:50:12;;;;;;;30.20;13.50;;;;;;;10.34;60.40;100321.80;108065;1285;21980;-59
2023/11/22 02:52:38;;;;;;;31.40;13.80;;;;;;;10.32;60.43;100322.70;108174;1283;21991;-60
2023/11/22 02:55:05;;;;;;;30.60;13.40;;;;;;;10.30;60.47;100328.69;108076;1285;22028;-60
2023/11/22 02:57:31;;;;;;;24.50;13.30;;;;;;;10.28;60.46;100331.52;108009;1285;22458;-59
2023/11/22 02:59:57;;;;;;;27.50;14.10;;;;;;;10.27;60.45;100333.63;108014;1279;22011;-59
2023/11/22 03:02:23;;;;;;;28.30;13.40;;;;;;;10.26;60.50;100336.63;108205;1284;21989;-60
2023/11/22 03:04:50;;;;;;;24.10;13.90;;;;;;;10.25;60.45;100337.52;108157;1285;21992;-60
2023/11/22 03:07:15;;;;;;;24.50;13.80;;;;;;;10.24;60.60;100336.64;106708;1274;1003186;-59
2023/11/22 03:09:43;;;;;;;29.50;13.70;;;;;;;10.23;60.64;100337.35;108132;1280;21995;-60
2023/11/22 03:12:09;;;;;;;28.00;14.80;;;;;;;10.21;60.68;100335.44;108089;1284;21983;-60
2023/11/22 03:14:35;;;;;;;28.80;13.80;;;;;;;10.20;60.68;100338.09;108076;1274;22029;-59
2023/11/22 03:17:01;;;;;;;30.00;14.70;;;;;;;10.21;60.65;100345.45;108053;1274;21991;-59
2023/11/22 03:19:27;;;;;;;28.40;14.80;;;;;;;10.21;60.61;100350.17;108066;1281;21983;-60
2023/11/22 03:21:53;;;;;;;28.40;14.90;;;;;;;10.20;60.66;100350.36;108299;1285;21993;-59
2023/11/22 03:24:18;;;;;;;30.90;15.20;;;;;;;10.19;60.79;100350.90;108259;1284;21995;-59
2023/11/22 03:26:45;;;;;;;35.10;15.50;;;;;;;10.19;60.59;100347.73;108266;1285;22100;-60
2023/11/22 03:29:11;;;;;;;29.30;14.40;;;;;;;10.18;60.83;100346.88;108301;1284;21991;-60
2023/11/22 03:31:38;;;;;;;29.20;16.80;;;;;;;10.16;60.72;100346.20;108215;1284;21995;-59
2023/11/22 03:34:05;;;;;;;30.70;14.60;;;;;;;10.14;60.81;100350.26;108172;1284;22019;-59
2023/11/22 03:36:30;;;;;;;29.40;15.00;;;;;;;10.12;60.72;100350.28;108092;1284;21977;-60
2023/11/22 03:38:56;;;;;;;32.10;15.90;;;;;;;10.11;60.99;100348.89;108158;1274;21983;-59
2023/11/22 03:41:21;;;;;;;35.80;16.90;;;;;;;10.10;60.90;100348.55;108156;1280;21989;-60
2023/11/22 03:43:47;;;;;;;30.50;15.40;;;;;;;10.10;60.92;100348.90;108145;1276;21986;-60
2023/11/22 03:46:13;;;;;;;34.20;16.00;;;;;;;10.09;60.98;100355.74;108193;1284;21995;-60
2023/11/22 03:48:38;;;;;;;31.70;15.70;;;;;;;10.10;60.94;100356.09;108146;1277;22467;-59
2023/11/22 03:51:04;;;;;;;37.80;16.70;;;;;;;10.09;60.99;100358.02;108166;1281;22024;-60
2023/11/22 03:53:29;;;;;;;36.20;17.00;;;;;;;10.08;61.11;100359.09;108187;1277;22160;-60
2023/11/22 03:55:55;;;;;;;33.80;16.80;;;;;;;10.07;61.10;100362.25;108175;1277;21982;-59
2023/11/22 03:58:21;;;;;;;34.40;15.70;;;;;;;10.07;61.23;100367.16;108166;1276;21991;-60
2023/11/22 04:00:47;;;;;;;31.40;16.60;;;;;;;10.08;61.21;100369.42;108138;1284;22451;-61
2023/11/22 04:03:12;;;;;;;36.90;17.20;;;;;;;10.09;61.24;100371.52;108175;1280;21990;-59
2023/11/22 04:05:38;;;;;;;34.70;16.20;;;;;;;10.08;61.26;100375.21;108152;1284;21990;-59
2023/11/22 04:08:04;;;;;;;33.80;18.00;;;;;;;10.08;61.20;100374.17;108201;1280;21986;-60
2023/11/22 04:10:30;;;;;;;36.00;16.60;;;;;;;10.06;61.22;100372.61;108169;1283;21974;-60
2023/11/22 04:12:56;;;;;;;34.90;17.90;;;;;;;10.06;61.22;100373.13;108159;1280;21995;-60
2023/11/22 04:15:22;;;;;;;39.90;17.00;;;;;;;10.04;61.14;100372.45;108291;1284;21991;-60
2023/11/22 04:17:48;;;;;;;34.70;17.00;;;;;;;10.04;61.09;100377.01;108297;1284;22024;-60
2023/11/22 04:20:14;;;;;;;39.70;19.20;;;;;;;10.04;61.05;100374.38;108220;1284;21996;-59
2023/11/22 04:22:45;;;;;;;35.10;17.40;;;;;;;10.03;61.01;100374.04;108154;1276;21987;-59
2023/11/22 04:25:13;;;;;;;;;;;;;;;10.03;61.24;100371.94;108126;1284;21989;-59
2023/11/22 04:27:39;;;;;;;36.50;16.80;;;;;;;10.04;60.99;100378.42;108222;1274;21996;-60
2023/11/22 04:30:09;;;;;;;36.30;16.20;;;;;;;10.03;61.24;100384.20;108171;1285;21995;-59
2023/11/22 04:32:36;;;;;;;36.60;17.00;;;;;;;10.03;61.31;100384.04;108193;1284;21991;-59
2023/11/22 04:35:05;;;;;;;33.40;16.20;;;;;;;10.02;61.27;100379.66;108232;1281;21985;-59
2023/11/22 04:37:32;;;;;;;36.00;18.50;;;;;;;10.01;61.25;100386.15;108201;1277;22080;-60
2023/11/22 04:39:58;;;;;;;34.70;16.60;;;;;;;9.99;61.44;100387.23;108194;1276;21981;-60
2023/11/22 04:42:24;;;;;;;30.40;14.80;;;;;;;9.99;61.61;100379.86;108337;1279;21954;-59
2023/11/22 04:44:50;;;;;;;30.70;15.20;;;;;;;10.00;61.52;100378.62;108232;1278;21995;-60
2023/11/22 04:47:15;;;;;;;34.60;15.40;;;;;;;10.01;61.52;100373.02;108196;1274;21987;-59
2023/11/22 04:49:41;;;;;;;35.70;16.50;;;;;;;10.02;61.44;100373.00;108262;1284;21987;-59
2023/11/22 04:52:07;;;;;;;36.50;17.10;;;;;;;10.02;61.47;100372.30;108236;1274;21984;-60
2023/11/22 04:54:34;;;;;;;34.00;16.20;;;;;;;10.01;61.54;100373.52;108186;1284;21991;-60
2023/11/22 04:56:59;;;;;;;27.30;15.80;;;;;;;10.03;61.52;100374.73;108261;1283;21986;-61
2023/11/22 04:59:25;;;;;;;32.00;14.80;;;;;;;10.02;61.26;100383.52;108283;1274;21983;-60
2023/11/22 05:01:50;;;;;;;54.60;17.20;;;;;;;10.01;61.32;100387.05;108224;1273;21987;-60
2023/11/22 05:04:18;;;;;;;35.30;16.50;;;;;;;10.02;61.59;100384.40;108210;1277;23615;-61
2023/11/22 05:06:45;;;;;;;35.80;15.00;;;;;;;10.02;61.61;100389.48;108281;1284;21980;-61
2023/11/22 05:09:11;;;;;;;40.40;15.60;;;;;;;10.05;62.16;100397.35;108222;1284;21984;-61
2023/11/22 05:11:36;;;;;;;40.50;14.90;;;;;;;10.08;62.07;100398.89;108230;1284;22004;-60
2023/11/22 05:14:02;;;;;;;41.80;15.70;;;;;;;10.11;62.09;100394.65;108210;1280;21997;-60
2023/11/22 05:16:28;;;;;;;39.70;17.20;;;;;;;10.13;61.92;100395.70;108217;1280;22080;-60
2023/11/22 05:18:53;;;;;;;46.40;16.00;;;;;;;10.13;61.79;100401.64;108225;1284;21983;-60
2023/11/22 05:21:19;;;;;;;50.00;15.70;;;;;;;10.13;61.98;100404.27;108169;1281;21981;-60
2023/11/22 05:23:45;;;;;;;39.80;15.10;;;;;;;10.15;61.93;100402.86;108293;1274;21988;-62
2023/11/22 05:26:10;;;;;;;38.70;15.40;;;;;;;10.15;61.98;100404.27;108259;1284;21990;-60
2023/11/22 05:28:36;;;;;;;45.70;16.90;;;;;;;10.13;61.84;100406.90;108238;1278;22008;-60
2023/11/22 05:31:01;;;;;;;44.00;14.40;;;;;;;10.13;62.00;100404.80;108220;1283;21957;-61
2023/11/22 05:33:27;;;;;;;43.30;14.10;;;;;;;10.14;61.84;100406.02;108181;1284;21993;-60
2023/11/22 05:35:53;;;;;;;37.70;15.00;;;;;;;10.16;61.94;100407.23;108169;1279;21991;-60
2023/11/22 05:38:19;;;;;;;35.00;15.10;;;;;;;10.17;61.86;100404.58;106680;1274;1002569;-61
2023/11/22 05:40:45;;;;;;;38.10;16.30;;;;;;;10.18;61.91;100411.05;108178;1280;22099;-61
2023/11/22 05:43:10;;;;;;;39.10;15.50;;;;;;;10.19;61.89;100412.98;108195;1283;21993;-61
2023/11/22 05:45:36;;;;;;;36.40;15.10;;;;;;;10.19;62.00;100417.54;108212;1280;21977;-59
2023/11/22 05:48:02;;;;;;;33.60;15.00;;;;;;;10.20;61.90;100419.63;108113;1281;21994;-60
2023/11/22 05:50:28;;;;;;;31.40;15.90;;;;;;;10.22;61.99;100421.02;108234;1284;22091;-61
2023/11/22 05:52:53;;;;;;;36.60;15.20;;;;;;;10.21;61.80;100423.64;108113;1280;21992;-61
2023/11/22 05:55:19;;;;;;;31.20;14.60;;;;;;;10.20;62.04;100426.47;108064;1277;22021;-60
2023/11/22 05:57:44;;;;;;;34.10;15.20;;;;;;;10.20;62.07;100427.52;108204;1284;22018;-60
2023/11/22 06:00:11;;;;;;;33.40;15.90;;;;;;;10.21;62.09;100426.64;108286;1280;22007;-60
2023/11/22 06:02:38;;;;;;;30.70;15.20;;;;;;;10.21;62.00;100432.23;108307;1281;21982;-61
2023/11/22 06:05:05;;;;;;;34.30;16.10;;;;;;;10.22;61.95;100432.23;108321;1277;21953;-60
2023/11/22 06:07:31;;;;;;;35.90;16.50;;;;;;;10.22;62.00;100434.16;108279;1280;22745;-61
2023/11/22 06:09:57;;;;;;;32.50;16.50;;;;;;;10.23;62.21;100437.66;108201;1280;21986;-60
2023/11/22 06:12:23;;;;;;;33.40;14.70;;;;;;;10.23;62.13;100441.16;108182;1284;21992;-61
2023/11/22 06:14:49;;;;;;;32.30;16.00;;;;;;;10.24;62.26;100446.61;108202;1280;22007;-59
2023/11/22 06:17:14;;;;;;;27.40;14.50;;;;;;;10.25;62.20;100451.33;108193;1284;22077;-60
2023/11/22 06:19:43;;;;;;;31.60;15.50;;;;;;;10.26;62.37;100452.54;108212;1284;21997;-60
2023/11/22 06:22:09;;;;;;;35.50;15.00;;;;;;;10.31;62.48;100454.24;108117;1285;21995;-61
2023/11/22 06:24:36;;;;;;;34.00;15.40;;;;;;;10.36;62.44;100457.54;108128;1280;21992;-59
2023/11/22 06:27:02;;;;;;;27.40;14.60;;;;;;;10.39;62.27;100457.52;108223;1280;21994;-59
2023/11/22 06:29:29;;;;;;;34.00;15.60;;;;;;;10.42;62.18;100460.13;108134;1280;21990;-60
2023/11/22 06:31:54;;;;;;;34.00;15.70;;;;;;;10.44;62.14;100463.61;108145;1276;21980;-60
2023/11/22 06:34:20;;;;;;;27.30;14.10;;;;;;;10.46;62.15;100466.75;108328;1273;21984;-60
2023/11/22 06:36:46;;;;;;;34.30;16.00;;;;;;;10.47;61.99;100472.00;108202;1274;22020;-58
2023/11/22 06:39:13;;;;;;;30.60;15.30;;;;;;;10.46;62.09;100476.23;108223;1284;21994;-58
2023/11/22 06:41:41;;;;;;;32.20;16.40;;;;;;;10.42;61.90;100483.10;108256;1284;21993;-60
2023/11/22 06:44:09;;;;;;;28.70;14.70;;;;;;;10.36;61.72;100487.18;108202;1281;22000;-60
2023/11/22 06:46:35;;;;;;;31.20;15.50;;;;;;;10.33;61.78;100488.79;108228;1285;23918;-59
2023/11/22 06:49:01;;;;;;;30.60;15.40;;;;;;;10.31;61.78;100492.32;108055;1274;22006;-60
2023/11/22 06:51:26;;;;;;;26.30;14.40;;;;;;;10.29;61.80;100491.63;108021;1280;21988;-61
2023/11/22 06:53:54;;;;;;;28.80;15.70;;;;;;;10.26;61.92;100494.45;108047;1285;22024;-60
2023/11/22 06:56:20;;;;;;;27.10;14.30;;;;;;;10.26;62.05;100493.56;108182;1280;23727;-60
2023/11/22 06:58:45;;;;;;;30.00;16.00;;;;;;;10.27;62.04;100493.58;108036;1281;21985;-59
2023/11/22 07:01:11;;;;;;;27.90;15.80;;;;;;;10.26;62.03;100495.15;108220;1277;21992;-60
2023/11/22 07:03:40;;;;;;;25.60;14.80;;;;;;;10.26;61.95;100495.66;108037;1285;21991;-59
2023/11/22 07:06:05;;;;;;;30.70;16.50;;;;;;;10.27;61.87;100497.42;108918;1274;21984;-58
2023/11/22 07:08:31;;;;;;;29.80;14.70;;;;;;;10.26;61.98;100496.02;108212;1276;21988;-59
2023/11/22 07:10:57;;;;;;;29.60;15.20;;;;;;;10.26;61.92;100496.91;108119;1285;21985;-59
2023/11/22 07:13:24;;;;;;;27.50;14.30;;;;;;;10.25;61.84;100497.63;108068;1285;21999;-59
2023/11/22 07:15:51;;;;;;;29.40;14.70;;;;;;;10.25;61.96;100496.91;108076;1276;21992;-59
2023/11/22 07:18:17;;;;;;;31.20;15.50;;;;;;;10.26;62.00;100497.25;108232;1277;21994;-60
2023/11/22 07:20:42;;;;;;;26.30;14.30;;;;;;;10.26;61.89;100499.73;108091;1280;21983;-62
2023/11/22 07:23:13;;;;;;;27.90;14.60;;;;;;;10.23;61.88;100498.70;108103;1285;22023;-60
2023/11/22 07:25:39;;;;;;;30.60;16.00;;;;;;;10.25;61.91;100499.20;108164;1285;21987;-60
2023/11/22 07:28:05;;;;;;;30.10;15.70;;;;;;;10.26;62.07;100505.68;108080;1285;21994;-59
2023/11/22 07:30:33;;;;;;;30.70;15.10;;;;;;;10.27;62.02;100508.64;108049;1280;21989;-60
2023/11/22 07:32:59;;;;;;;30.70;15.40;;;;;;;10.29;62.09;100508.98;108070;1278;21982;-60
2023/11/22 07:35:25;;;;;;;28.50;15.10;;;;;;;10.30;62.05;100513.20;108107;1277;21989;-60
2023/11/22 07:37:51;;;;;;;26.90;14.30;;;;;;;10.31;62.10;100520.73;108055;1280;21987;-61
2023/11/22 07:40:19;;;;;;;27.70;15.30;;;;;;;10.32;62.09;100521.23;108143;1285;21978;-60
2023/11/22 07:42:44;;;;;;;31.00;16.70;;;;;;;10.33;62.25;100522.46;108274;1285;21995;-59
2023/11/22 07:45:13;;;;;;;27.40;15.00;;;;;;;10.35;62.25;100525.95;108237;1285;21992;-60
2023/11/22 07:47:43;;;;;;;32.90;16.50;;;;;;;10.37;62.08;100531.73;108157;1275;21989;-59
2023/11/22 07:50:11;;;;;;;32.00;15.50;;;;;;;10.38;62.19;100533.98;108110;1283;21994;-59
2023/11/22 07:52:38;;;;;;;29.10;15.30;;;;;;;10.41;62.08;100535.02;108104;1280;21998;-60
2023/11/22 07:55:07;;;;;;;26.60;14.50;;;;;;;10.43;62.10;100537.13;108102;1280;21985;-60
2023/11/22 07:57:38;;;;;;;27.90;14.40;;;;;;;10.43;62.15;100536.95;108174;1285;21986;-59
2023/11/22 08:00:07;;;;;;;25.90;14.10;;;;;;;10.42;61.97;100534.34;108063;1278;22024;-60
2023/11/22 08:02:34;;;;;;;28.10;15.70;;;;;;;10.45;62.03;100539.39;108109;1275;23732;-59
2023/11/22 08:05:03;;;;;;;31.20;15.80;;;;;;;10.47;62.10;100541.65;108082;1285;21993;-60
2023/11/22 08:07:29;;;;;;;28.70;15.70;;;;;;;10.48;62.15;100542.34;108176;1285;22063;-59
2023/11/22 08:09:55;;;;;;;28.30;15.50;;;;;;;10.49;62.12;100541.10;108112;1285;21998;-60
2023/11/22 08:12:23;;;;;;;28.70;14.50;;;;;;;10.51;62.07;100538.30;108108;1279;22022;-59
2023/11/22 08:14:48;;;;;;;30.50;14.60;;;;;;;10.52;62.13;100537.22;108166;1277;21995;-60
2023/11/22 08:17:14;;;;;;;29.00;15.20;;;;;;;10.53;62.08;100534.41;108060;1277;21957;-61
2023/11/22 08:19:40;;;;;;;28.40;14.70;;;;;;;10.54;62.06;100537.02;108108;1280;21989;-60
2023/11/22 08:22:06;;;;;;;27.80;14.70;;;;;;;10.56;62.13;100537.01;108075;1276;22029;-60
2023/11/22 08:24:32;;;;;;;28.30;15.20;;;;;;;10.59;62.04;100541.39;108123;1285;21982;-59
2023/11/22 08:26:58;;;;;;;28.90;14.50;;;;;;;10.60;62.00;100539.61;108099;1285;21996;-60
2023/11/22 08:29:24;;;;;;;32.70;16.00;;;;;;;10.62;61.98;100540.80;108086;1285;22019;-60
2023/11/22 08:31:50;;;;;;;27.10;14.30;;;;;;;10.64;62.22;100538.16;108068;1280;21984;-60
2023/11/22 08:34:17;;;;;;;29.50;14.70;;;;;;;10.67;62.16;100536.55;108084;1285;21987;-61
2023/11/22 08:36:43;;;;;;;28.70;15.80;;;;;;;10.70;62.11;100533.36;108075;1283;22001;-60
2023/11/22 08:39:08;;;;;;;31.30;16.50;;;;;;;10.74;62.17;100533.67;108123;1285;21998;-60
2023/11/22 08:41:34;;;;;;;29.60;16.10;;;;;;;10.76;62.27;100531.19;108198;1285;21994;-60
2023/11/22 08:44:00;;;;;;;30.70;15.70;;;;;;;10.79;62.20;100532.56;108123;1276;22001;-60
2023/11/22 08:46:26;;;;;;;25.70;13.90;;;;;;;10.81;62.10;100530.27;108100;1285;21987;-60
2023/11/22 08:48:52;;;;;;;29.80;15.30;;;;;;;10.82;62.08;100526.56;108052;1285;21987;-60
2023/11/22 08:51:18;;;;;;;29.40;15.30;;;;;;;10.84;62.12;100523.20;108060;1285;22030;-60
2023/11/22 08:53:46;;;;;;;32.60;16.30;;;;;;;10.85;62.22;100523.72;108242;1285;21994;-60
2023/11/22 08:56:12;;;;;;;24.30;14.00;;;;;;;10.88;62.08;100521.75;108159;1280;21997;-59
2023/11/22 08:58:39;;;;;;;32.10;16.10;;;;;;;10.91;62.04;100520.50;108052;1284;21986;-60
2023/11/22 09:01:05;;;;;;;35.10;18.20;;;;;;;10.92;62.19;100522.24;108198;1285;22023;-60
2023/11/22 09:03:32;;;;;;;35.30;18.60;;;;;;;10.92;62.07;100525.05;108113;1283;21993;-59
2023/11/22 09:05:58;;;;;;;36.30;18.10;;;;;;;10.92;61.90;100526.64;108150;1285;21987;-60
2023/11/22 09:08:23;;;;;;;38.00;18.10;;;;;;;10.90;61.93;100523.66;108196;1275;21983;-59
2023/11/22 09:10:50;;;;;;;37.30;18.20;;;;;;;10.90;61.92;100518.05;108072;1285;21983;-60
2023/11/22 09:13:16;;;;;;;33.30;17.90;;;;;;;10.89;61.66;100521.75;108094;1280;22026;-60
2023/11/22 09:15:44;;;;;;;31.70;16.80;;;;;;;10.88;61.84;100521.95;108249;1285;21996;-60
2023/11/22 09:18:12;;;;;;;30.70;16.10;;;;;;;10.88;61.95;100522.10;108192;1285;21981;-60
2023/11/22 09:20:39;;;;;;;34.20;16.70;;;;;;;10.90;61.88;100521.02;108106;1285;21997;-59
2023/11/22 09:23:05;;;;;;;30.70;16.20;;;;;;;10.90;61.84;100522.08;108067;1277;21995;-60
2023/11/22 09:25:31;;;;;;;29.70;14.90;;;;;;;10.90;61.97;100521.04;108249;1285;22029;-60
2023/11/22 09:27:59;;;;;;;29.40;15.80;;;;;;;10.90;61.85;100521.55;108146;1274;21992;-60
2023/11/22 09:33:10;;;;;;;29.30;16.20;;;;;;;10.91;62.04;100516.10;108147;1285;21987;-60
2023/11/22 09:35:36;;;;;;;33.20;17.60;;;;;;;10.93;61.93;100512.58;108084;1285;22015;-60
2023/11/22 09:38:03;;;;;;;32.00;16.90;;;;;;;10.92;61.71;100510.30;108066;1278;21986;-59
2023/11/22 09:40:31;;;;;;;30.60;16.10;;;;;;;10.92;61.84;100512.41;108161;1285;21989;-60
2023/11/22 09:42:58;;;;;;;36.00;16.80;;;;;;;10.93;62.03;100516.25;108061;1280;22453;-59
2023/11/22 09:45:25;;;;;;;31.50;17.20;;;;;;;10.94;61.83;100516.08;108136;1285;21987;-59
2023/11/22 09:47:51;;;;;;;34.30;16.10;;;;;;;10.96;61.82;100514.83;108091;1285;21989;-59
2023/11/22 09:50:19;;;;;;;33.80;16.40;;;;;;;10.98;61.93;100512.85;108189;1277;21987;-59
2023/11/22 09:52:50;;;;;;;31.80;16.00;;;;;;;11.01;61.92;100514.25;108121;1278;21987;-59
2023/11/22 09:55:17;;;;;;;28.80;15.80;;;;;;;11.05;62.00;100513.13;108173;1285;21984;-60
2023/11/22 09:57:42;;;;;;;30.90;15.90;;;;;;;11.09;62.05;100514.13;108198;1285;21994;-60
2023/11/22 10:00:13;;;;;;;29.90;16.40;;;;;;;11.10;62.00;100518.52;108180;1285;22180;-60
2023/11/22 10:02:42;;;;;;;26.40;14.50;;;;;;;11.12;62.32;100522.35;108178;1285;21995;-61
2023/11/22 10:05:11;;;;;;;27.50;15.20;;;;;;;11.15;62.14;100526.19;108230;1280;21990;-60
2023/11/22 10:07:38;;;;;;;28.70;16.10;;;;;;;11.17;62.04;100528.80;108102;1285;21987;-60
2023/11/22 10:10:10;;;;;;;26.00;14.50;;;;;;;11.20;62.03;100530.17;108134;1284;21988;-60
2023/11/22 10:12:39;;;;;;;30.90;16.00;;;;;;;11.23;62.01;100533.12;108087;1278;21983;-60
2023/11/22 10:15:12;;;;;;;29.30;15.00;;;;;;;11.26;62.04;100534.83;108089;1285;21998;-59
2023/11/22 10:17:38;;;;;;;33.10;15.80;;;;;;;11.25;62.04;100538.73;108074;1280;21990;-61
2023/11/22 10:20:10;;;;;;;32.50;16.70;;;;;;;11.25;62.08;100541.87;108088;1285;21993;-60
2023/11/22 10:22:47;;;;;;;33.20;17.10;;;;;;;11.27;61.99;100545.35;108094;1285;21989;-60
2023/11/22 10:25:18;;;;;;;27.90;16.10;;;;;;;11.26;61.93;100544.66;108306;1285;21989;-60
2023/11/22 10:27:46;;;;;;;28.10;15.60;;;;;;;11.25;61.95;100540.99;108239;1285;21997;-60
2023/11/22 10:30:12;;;;;;;31.80;16.10;;;;;;;11.26;61.97;100539.21;108135;1277;21991;-61
2023/11/22 10:32:38;;;;;;;31.10;16.10;;;;;;;11.28;61.97;100538.31;108327;1276;21987;-59
2023/11/22 10:35:06;;;;;;;28.80;15.90;;;;;;;11.24;61.34;100536.96;108123;1285;21993;-60
2023/11/22 10:37:32;;;;;;;28.10;15.70;;;;;;;11.22;61.84;100535.77;108143;1280;23809;-60
2023/11/22 10:39:58;;;;;;;32.60;17.10;;;;;;;11.25;62.17;100533.61;108012;1285;22007;-60
2023/11/22 10:42:24;;;;;;;29.80;16.50;;;;;;;11.29;62.42;100532.50;108056;1280;21989;-60
2023/11/22 10:44:49;;;;;;;29.20;16.20;;;;;;;11.34;62.19;100534.73;108097;1285;21987;-60
2023/11/22 10:47:19;;;;;;;31.70;16.90;;;;;;;11.33;62.02;100534.05;108121;1285;21998;-60
2023/11/22 10:49:44;;;;;;;30.90;17.50;;;;;;;11.33;61.90;100540.71;108062;1281;21987;-62
2023/11/22 10:52:11;;;;;;;32.00;16.70;;;;;;;11.33;61.91;100541.24;108041;1285;21985;-60
2023/11/22 10:54:37;;;;;;;26.30;14.80;;;;;;;11.30;61.71;100542.15;108155;1280;21990;-60
2023/11/22 10:57:03;;;;;;;27.90;16.50;;;;;;;11.25;61.57;100541.36;105233;1282;1004085;-60
2023/11/22 10:59:29;;;;;;;27.60;16.40;;;;;;;11.22;61.79;100538.59;108044;1285;21971;-60
2023/11/22 11:01:54;;;;;;;30.90;16.10;;;;;;;11.22;61.94;100543.67;108038;1285;23061;-61